createdAt,value
2018-11-03T00:01:57.705Z,116.03
2018-11-03T00:04:39.227Z,92.17
2018-11-03T00:07:22.140Z,61.03
2018-11-03T00:10:04.722Z,51.53
2018-11-03T00:12:44.342Z,45.20
2018-11-03T00:15:22.663Z,38.03
2018-11-03T00:18:01.242Z,46.03
2018-11-03T00:20:40.100Z,45.77
2018-11-03T00:23:20.775Z,46.93
2018-11-03T00:26:04.497Z,42.07
2018-11-03T00:28:49.140Z,32.40
2018-11-03T00:31:33.039Z,37.03
2018-11-03T00:34:16.439Z,37.83
2018-11-03T00:36:54.801Z,44.83
2018-11-03T00:39:34.447Z,41.67
2018-11-03T00:42:13.967Z,39.97
2018-11-03T00:44:54.645Z,36.17
2018-11-03T00:47:43.398Z,37.13
2018-11-03T00:50:22.661Z,33.47
2018-11-03T00:53:01.177Z,34.50
2018-11-03T00:55:44.602Z,39.10
2018-11-03T00:58:27.359Z,70.33
2018-11-03T01:01:11.581Z,74.83
2018-11-03T01:03:55.920Z,98.00
2018-11-03T01:06:39.524Z,89.77
2018-11-03T01:09:23.839Z,80.50
2018-11-03T01:12:07.964Z,79.77
2018-11-03T01:14:46.276Z,92.67
2018-11-03T01:17:30.256Z,81.07
2018-11-03T01:20:09.004Z,111.57
2018-11-03T01:22:49.225Z,116.57
2018-11-03T01:25:32.532Z,99.70
2018-11-03T01:28:16.876Z,80.13
2018-11-03T01:31:00.796Z,88.03
2018-11-03T01:33:43.682Z,60.37
2018-11-03T01:36:27.798Z,50.47
2018-11-03T01:39:11.578Z,54.63
2018-11-03T01:41:51.058Z,55.80
2018-11-03T01:44:31.258Z,63.90
2018-11-03T01:47:15.584Z,55.63
2018-11-03T01:49:54.460Z,53.93
2018-11-03T01:52:33.317Z,48.93
2018-11-03T01:55:17.476Z,41.00
2018-11-03T01:57:55.780Z,40.90
2018-11-03T02:00:33.978Z,42.90
2018-11-03T02:03:13.627Z,47.50
2018-11-03T02:05:52.600Z,53.03
2018-11-03T02:08:34.861Z,54.03
2018-11-03T02:11:15.781Z,47.53
2018-11-03T02:13:54.795Z,45.70
2018-11-03T02:16:33.799Z,46.63
2018-11-03T02:19:12.946Z,46.73
2018-11-03T02:21:52.119Z,52.93
2018-11-03T02:24:31.098Z,50.90
2018-11-03T02:27:12.255Z,51.67
2018-11-03T02:29:48.918Z,42.00
2018-11-03T02:32:28.437Z,37.80
2018-11-03T02:35:09.477Z,43.73
2018-11-03T02:37:56.715Z,40.67
2018-11-03T02:40:35.405Z,37.70
2018-11-03T02:43:18.659Z,35.87
2018-11-03T02:45:58.262Z,45.13
2018-11-03T02:48:39.579Z,57.63
2018-11-03T02:51:19.145Z,93.80
2018-11-03T02:53:58.559Z,115.47
2018-11-03T02:56:36.796Z,105.47
2018-11-03T02:59:20.040Z,105.73
2018-11-03T03:02:04.700Z,120.93
2018-11-03T03:04:43.301Z,116.40
2018-11-03T03:07:23.339Z,106.97
2018-11-03T03:10:02.774Z,119.67
2018-11-03T03:12:42.186Z,133.57
2018-11-03T03:15:20.678Z,125.37
2018-11-03T03:18:04.134Z,111.40
2018-11-03T03:20:46.700Z,100.93
2018-11-03T03:23:30.378Z,84.50
2018-11-03T03:26:13.581Z,114.03
2018-11-03T03:28:54.410Z,125.47
2018-11-03T03:31:37.496Z,123.10
2018-11-03T03:34:21.458Z,122.97
2018-11-03T03:37:05.284Z,95.53
2018-11-03T03:39:49.577Z,117.40
2018-11-03T03:42:32.984Z,111.97
2018-11-03T03:45:17.007Z,110.67
2018-11-03T03:48:00.545Z,97.40
2018-11-03T03:50:43.844Z,107.67
2018-11-03T03:53:27.298Z,84.30
2018-11-03T03:56:10.907Z,105.03
2018-11-03T03:58:55.020Z,110.57
2018-11-03T04:01:36.257Z,112.23
2018-11-03T04:04:15.858Z,74.93
2018-11-03T04:06:56.280Z,77.07
2018-11-03T04:09:35.459Z,92.03
2018-11-03T04:12:16.418Z,82.83
2018-11-03T04:14:57.165Z,54.23
2018-11-03T04:17:36.163Z,39.47
2018-11-03T04:20:16.137Z,42.97
2018-11-03T04:22:53.716Z,44.20
2018-11-03T04:25:32.597Z,41.27
2018-11-03T04:28:12.436Z,40.50
2018-11-03T04:30:53.367Z,52.13
2018-11-03T04:33:31.919Z,68.63
2018-11-03T04:36:10.984Z,89.40
2018-11-03T04:38:50.959Z,87.87
2018-11-03T04:41:29.625Z,52.77
2018-11-03T04:44:11.043Z,69.07
2018-11-03T04:46:48.522Z,92.53
2018-11-03T04:49:27.018Z,104.60
2018-11-03T04:52:10.441Z,99.37
2018-11-03T04:54:54.194Z,86.37
2018-11-03T04:57:32.180Z,94.93
2018-11-03T05:00:15.282Z,85.50
2018-11-03T05:02:52.928Z,72.80
2018-11-03T05:05:33.019Z,71.33
2018-11-03T05:08:12.196Z,78.50
2018-11-03T05:10:52.204Z,56.40
2018-11-03T05:13:31.276Z,48.77
2018-11-03T05:16:11.100Z,41.43
2018-11-03T05:18:49.558Z,38.20
2018-11-03T05:21:27.964Z,46.23
2018-11-03T05:24:07.642Z,59.43
2018-11-03T05:26:47.263Z,68.27
2018-11-03T05:29:30.757Z,58.77
2018-11-03T05:32:09.861Z,42.67
2018-11-03T05:34:49.598Z,37.00
2018-11-03T05:37:33.437Z,38.40
2018-11-03T05:40:11.880Z,36.57
2018-11-03T05:42:54.927Z,37.63
2018-11-03T05:45:34.301Z,34.70
2018-11-03T05:48:13.759Z,36.70
2018-11-03T05:50:54.364Z,33.60
2018-11-03T05:53:38.718Z,34.70
2018-11-03T05:56:17.321Z,37.07
2018-11-03T05:58:57.662Z,37.03
2018-11-03T06:01:36.296Z,36.03
2018-11-03T06:04:20.510Z,34.83
2018-11-03T06:07:04.800Z,36.73
2018-11-03T06:09:46.981Z,40.60
2018-11-03T06:12:24.559Z,38.30
2018-11-03T06:15:04.220Z,36.30
2018-11-03T06:17:42.883Z,35.50
2018-11-03T06:20:23.198Z,39.53
2018-11-03T06:23:01.995Z,37.83
2018-11-03T06:25:41.173Z,34.03
2018-11-03T06:28:22.740Z,35.40
2018-11-03T06:31:01.742Z,51.67
2018-11-03T06:33:40.758Z,62.57
2018-11-03T06:36:20.271Z,96.37
2018-11-03T06:38:59.834Z,121.30
2018-11-03T06:41:40.346Z,112.70
2018-11-03T06:44:18.847Z,102.33
2018-11-03T06:46:56.399Z,112.53
2018-11-03T06:49:35.544Z,98.43
2018-11-03T06:52:15.885Z,115.40
2018-11-03T06:54:59.159Z,108.43
2018-11-03T06:57:41.399Z,85.07
2018-11-03T07:00:21.821Z,67.77
2018-11-03T07:03:00.980Z,70.53
2018-11-03T07:05:40.518Z,64.70
2018-11-03T07:08:25.155Z,54.57
2018-11-03T07:11:03.378Z,41.83
2018-11-03T07:13:40.817Z,39.80
2018-11-03T07:16:17.841Z,40.17
2018-11-03T07:18:59.681Z,56.70
2018-11-03T07:21:46.691Z,60.37
2018-11-03T07:24:25.362Z,68.20
2018-11-03T07:27:04.081Z,45.67
2018-11-03T07:29:45.509Z,50.10
2018-11-03T07:32:26.904Z,51.10
2018-11-03T07:35:07.376Z,58.80
2018-11-03T07:37:47.706Z,75.63
2018-11-03T07:40:25.921Z,81.47
2018-11-03T07:43:06.399Z,90.83
2018-11-03T07:45:48.024Z,40.90
2018-11-03T07:48:26.964Z,55.60
2018-11-03T07:51:06.684Z,42.00
2018-11-03T07:53:46.564Z,39.90
2018-11-03T07:56:35.440Z,57.93
2018-11-03T07:59:13.320Z,43.57
2018-11-03T08:01:52.455Z,47.43
2018-11-03T08:04:31.639Z,40.63
2018-11-03T08:07:16.422Z,41.33
2018-11-03T08:09:56.762Z,40.97
2018-11-03T08:12:37.240Z,40.07
2018-11-03T08:15:21.640Z,41.73
2018-11-03T08:18:04.663Z,42.10
2018-11-03T08:20:46.656Z,43.13
2018-11-03T08:23:26.942Z,42.23
2018-11-03T08:26:12.123Z,42.63
2018-11-03T08:28:51.001Z,42.50
2018-11-03T08:31:30.605Z,43.30
2018-11-03T08:34:16.023Z,41.97
2018-11-03T08:36:53.839Z,41.30
2018-11-03T08:39:33.172Z,47.27
2018-11-03T08:42:13.082Z,47.57
2018-11-03T08:44:54.582Z,47.67
2018-11-03T08:47:36.660Z,42.53
2018-11-03T08:50:15.201Z,51.13
2018-11-03T08:52:58.991Z,76.90
2018-11-03T08:55:39.942Z,48.00
2018-11-03T08:58:21.699Z,46.37
2018-11-03T09:01:02.301Z,49.03
2018-11-03T09:03:43.819Z,45.10
2018-11-03T09:06:22.801Z,41.43
2018-11-03T09:09:00.039Z,39.20
2018-11-03T09:11:38.236Z,36.87
2018-11-03T09:14:16.949Z,40.37
2018-11-03T09:16:58.319Z,68.17
2018-11-03T09:19:39.808Z,35.87
2018-11-03T09:22:18.039Z,40.83
2018-11-03T09:24:58.679Z,32.17
2018-11-03T09:27:41.657Z,55.00
2018-11-03T09:30:21.438Z,65.93
2018-11-03T09:33:00.974Z,31.03
2018-11-03T09:35:40.879Z,43.20
2018-11-03T09:38:21.493Z,33.23
2018-11-03T09:40:58.862Z,28.13
2018-11-03T09:43:41.879Z,30.10
2018-11-03T09:46:22.119Z,42.27
2018-11-03T09:49:08.399Z,53.93
2018-11-03T09:51:49.701Z,72.67
2018-11-03T09:54:34.242Z,44.07
2018-11-03T09:57:13.604Z,45.30
2018-11-03T09:59:55.297Z,227.80
2018-11-03T10:02:39.283Z,156.83
2018-11-03T10:05:19.962Z,153.00
2018-11-03T10:08:03.836Z,156.03
2018-11-03T10:10:43.458Z,128.63
2018-11-03T10:13:21.463Z,43.70
2018-11-03T10:16:01.410Z,43.60
2018-11-03T10:18:44.484Z,43.07
2018-11-03T10:21:24.978Z,37.03
2018-11-03T10:24:09.676Z,35.37
2018-11-03T10:26:52.917Z,32.83
2018-11-03T10:29:32.181Z,30.13
2018-11-03T10:32:14.108Z,35.17
2018-11-03T10:34:54.240Z,40.70
2018-11-03T10:37:35.021Z,43.53
2018-11-03T10:40:19.000Z,30.97
2018-11-03T10:42:58.327Z,33.57
2018-11-03T10:45:42.883Z,79.47
2018-11-03T10:48:21.916Z,46.40
2018-11-03T10:51:02.023Z,84.63
2018-11-03T10:53:41.703Z,50.07
2018-11-03T10:56:23.642Z,74.07
2018-11-03T10:59:03.318Z,28.40
2018-11-03T11:01:48.521Z,31.23
2018-11-03T11:04:30.918Z,92.90
2018-11-03T11:07:14.087Z,69.17
2018-11-03T11:09:57.799Z,27.67
2018-11-03T11:12:41.275Z,30.13
2018-11-03T11:15:22.504Z,28.20
2018-11-03T11:18:04.719Z,31.97
2018-11-03T11:20:44.582Z,28.53
2018-11-03T11:23:22.393Z,32.70
2018-11-03T11:26:00.601Z,30.37
2018-11-03T11:28:39.320Z,31.87
2018-11-03T11:31:16.269Z,32.83
2018-11-03T11:33:56.025Z,33.13
2018-11-03T11:36:42.239Z,35.00
2018-11-03T11:39:23.738Z,43.23
2018-11-03T11:42:00.912Z,27.93
2018-11-03T11:44:38.663Z,30.07
2018-11-03T11:47:17.295Z,32.50
2018-11-03T11:49:54.466Z,27.63
2018-11-03T11:52:33.959Z,30.50
2018-11-03T11:55:17.740Z,33.47
2018-11-03T11:57:58.180Z,42.70
2018-11-03T12:00:39.446Z,43.43
2018-11-03T12:03:18.558Z,44.03
2018-11-03T12:05:59.235Z,37.53
2018-11-03T12:08:40.664Z,45.90
2018-11-03T12:11:18.223Z,46.87
2018-11-03T12:14:00.305Z,34.77
2018-11-03T12:16:39.598Z,47.33
2018-11-03T12:19:19.925Z,43.83
2018-11-03T12:21:57.945Z,46.23
2018-11-03T12:24:42.021Z,43.63
2018-11-03T12:27:20.303Z,37.97
2018-11-03T12:30:03.765Z,44.67
2018-11-03T12:32:43.755Z,46.50
2018-11-03T12:35:25.064Z,40.10
2018-11-03T12:38:06.624Z,37.20
2018-11-03T12:40:46.891Z,30.50
2018-11-03T12:43:28.080Z,45.70
2018-11-03T12:46:09.673Z,38.83
2018-11-03T12:48:51.473Z,49.00
2018-11-03T12:51:28.823Z,33.60
2018-11-03T12:54:08.381Z,40.43
2018-11-03T12:56:46.441Z,40.50
2018-11-03T12:59:25.903Z,49.33
2018-11-03T13:02:06.186Z,51.63
2018-11-03T13:04:45.267Z,41.27
2018-11-03T13:07:27.201Z,29.60
2018-11-03T13:10:06.161Z,32.93
2018-11-03T13:12:46.902Z,43.63
2018-11-03T13:15:27.247Z,29.47
2018-11-03T13:18:07.705Z,38.87
2018-11-03T13:20:47.804Z,30.23
2018-11-03T13:23:28.701Z,28.77
2018-11-03T13:26:13.077Z,30.63
2018-11-03T13:28:53.080Z,39.23
2018-11-03T13:31:33.562Z,32.77
2018-11-03T13:34:12.916Z,35.23
2018-11-03T13:36:55.138Z,43.27
2018-11-03T13:39:38.180Z,32.50
2018-11-03T13:42:18.561Z,30.60
2018-11-03T13:44:58.482Z,32.10
2018-11-03T13:47:36.077Z,32.37
2018-11-03T13:50:17.705Z,33.97
2018-11-03T13:53:00.102Z,81.28
2018-11-03T13:55:40.361Z,74.37
2018-11-03T13:58:18.945Z,34.17
2018-11-03T14:00:59.175Z,32.33
2018-11-03T14:03:41.580Z,32.07
2018-11-03T14:06:24.689Z,32.87
2018-11-03T14:09:06.080Z,29.80
2018-11-03T14:11:45.119Z,34.03
2018-11-03T14:14:27.741Z,29.27
2018-11-03T14:17:06.233Z,35.60
2018-11-03T14:19:45.660Z,43.33
2018-11-03T14:22:27.523Z,52.30
2018-11-03T14:25:06.720Z,88.30
2018-11-03T14:27:46.206Z,58.57
2018-11-03T14:30:23.238Z,90.20
2018-11-03T14:33:00.682Z,96.20
2018-11-03T14:35:38.718Z,50.63
2018-11-03T14:38:16.876Z,34.93
2018-11-03T14:40:55.220Z,40.20
2018-11-03T14:43:36.979Z,39.07
2018-11-03T14:46:16.919Z,34.50
2018-11-03T14:48:58.961Z,38.87
2018-11-03T14:51:37.379Z,33.00
2018-11-03T14:54:15.679Z,43.77
2018-11-03T14:56:56.702Z,53.97
2018-11-03T14:59:35.640Z,35.90
2018-11-03T15:02:16.136Z,39.03
2018-11-03T15:04:58.720Z,39.97
2018-11-03T15:07:43.444Z,39.60
2018-11-03T15:10:22.146Z,35.90
2018-11-03T15:12:59.122Z,33.17
2018-11-03T15:15:38.020Z,32.05
2018-11-03T15:18:19.100Z,156.22
2018-11-03T15:20:58.362Z,61.40
2018-11-03T15:23:41.265Z,56.23
2018-11-03T15:26:27.379Z,43.10
2018-11-03T15:29:07.040Z,37.90
2018-11-03T15:31:44.957Z,36.53
2018-11-03T15:34:24.079Z,38.13
2018-11-03T15:37:04.860Z,40.47
2018-11-03T15:39:49.938Z,37.77
2018-11-03T15:42:31.321Z,36.60
2018-11-03T15:45:11.524Z,35.70
2018-11-03T15:47:52.528Z,29.67
2018-11-03T15:50:31.608Z,40.90
2018-11-03T15:53:13.137Z,92.83
2018-11-03T15:55:55.080Z,172.40
2018-11-03T15:58:34.963Z,47.33
2018-11-03T16:01:19.564Z,38.73
2018-11-03T16:03:57.017Z,32.07
2018-11-03T16:06:37.423Z,174.35
2018-11-03T16:09:18.726Z,43.27
2018-11-03T16:11:58.308Z,40.27
2018-11-03T16:14:35.878Z,29.52
2018-11-03T16:17:15.421Z,31.80
2018-11-03T16:19:54.442Z,30.40
2018-11-03T16:22:39.990Z,29.17
2018-11-03T16:25:21.522Z,27.10
2018-11-03T16:28:05.957Z,27.13
2018-11-03T16:30:45.846Z,28.17
2018-11-03T16:33:31.181Z,27.53
2018-11-03T16:36:12.479Z,27.37
2018-11-03T16:38:54.169Z,26.57
2018-11-03T16:41:36.038Z,25.43
2018-11-03T16:44:17.023Z,24.77
2018-11-03T16:47:02.222Z,26.03
2018-11-03T16:49:41.139Z,26.80
2018-11-03T16:52:22.197Z,29.37
2018-11-03T16:55:08.080Z,35.27
2018-11-03T16:57:48.006Z,30.47
2018-11-03T17:00:25.380Z,37.37
2018-11-03T17:03:03.318Z,37.43
2018-11-03T17:05:43.614Z,32.73
2018-11-03T17:08:21.324Z,40.47
2018-11-03T17:11:01.907Z,30.07
2018-11-03T17:13:42.361Z,28.73
2018-11-03T17:16:22.923Z,32.33
2018-11-03T17:19:02.681Z,34.47
2018-11-03T17:21:41.176Z,34.70
2018-11-03T17:24:19.466Z,31.17
2018-11-03T17:26:58.804Z,32.23
2018-11-03T17:29:37.697Z,30.03
2018-11-03T17:32:16.876Z,32.63
2018-11-03T17:34:55.069Z,30.80
2018-11-03T17:37:36.780Z,30.10
2018-11-03T17:40:15.588Z,31.50
2018-11-03T17:42:58.345Z,31.90
2018-11-03T17:45:40.499Z,32.27
2018-11-03T17:48:20.018Z,30.53
2018-11-03T17:50:58.179Z,27.50
2018-11-03T17:53:37.081Z,31.73
2018-11-03T17:56:18.824Z,33.47
2018-11-03T17:59:01.496Z,46.20
2018-11-03T18:01:42.212Z,40.53
2018-11-03T18:04:26.041Z,37.47
2018-11-03T18:07:08.816Z,44.50
2018-11-03T18:09:46.842Z,52.17
2018-11-03T18:12:30.398Z,59.00
2018-11-03T18:15:09.663Z,64.13
2018-11-03T18:17:51.879Z,65.00
2018-11-03T18:20:30.347Z,59.50
2018-11-03T18:23:11.737Z,48.20
2018-11-03T18:25:54.151Z,117.90
2018-11-03T18:28:34.429Z,132.60
2018-11-03T18:31:13.261Z,106.33
2018-11-03T18:33:55.882Z,114.73
2018-11-03T18:36:34.961Z,78.00
2018-11-03T18:39:16.262Z,87.73
2018-11-03T18:41:54.286Z,66.47
2018-11-03T18:44:32.759Z,83.67
2018-11-03T18:47:10.664Z,92.23
2018-11-03T18:49:47.597Z,99.40
2018-11-03T18:52:30.828Z,72.73
2018-11-03T18:55:08.160Z,81.17
2018-11-03T18:57:45.859Z,105.53
2018-11-03T19:00:25.580Z,113.77
2018-11-03T19:03:03.725Z,123.17
2018-11-03T19:05:47.225Z,117.47
2018-11-03T19:08:25.139Z,113.93
2018-11-03T19:11:03.106Z,135.63
2018-11-03T19:13:42.802Z,143.63
2018-11-03T19:16:19.697Z,139.20
2018-11-03T19:18:56.879Z,142.90
2018-11-03T19:21:33.840Z,144.63
2018-11-03T19:24:18.109Z,143.57
2018-11-03T19:26:56.423Z,141.33
2018-11-03T19:29:34.899Z,139.33
2018-11-03T19:32:17.784Z,138.63
2018-11-03T19:34:58.021Z,149.37
2018-11-03T19:37:38.021Z,146.53
2018-11-03T19:40:21.864Z,146.10
2018-11-03T19:42:59.201Z,149.13
2018-11-03T19:45:39.730Z,148.83
2018-11-03T19:48:19.901Z,141.27
2018-11-03T19:51:04.361Z,142.30
2018-11-03T19:53:44.561Z,139.57
2018-11-03T19:56:23.700Z,123.63
2018-11-03T19:59:02.479Z,126.77
2018-11-03T20:01:39.962Z,103.97
2018-11-03T20:04:18.981Z,82.13
2018-11-03T20:07:01.431Z,66.60
2018-11-03T20:09:41.817Z,53.70
2018-11-03T20:12:19.380Z,53.13
2018-11-03T20:15:00.917Z,54.70
2018-11-03T20:17:39.901Z,70.07
2018-11-03T20:20:20.833Z,80.27
2018-11-03T20:23:01.286Z,68.60
2018-11-03T20:25:44.562Z,55.10
2018-11-03T20:28:26.837Z,61.13
2018-11-03T20:31:04.123Z,74.33
2018-11-03T20:33:49.643Z,85.40
2018-11-03T20:36:34.124Z,72.70
2018-11-03T20:39:14.020Z,81.03
2018-11-03T20:41:51.768Z,64.93
2018-11-03T20:44:28.900Z,67.97
2018-11-03T20:47:13.618Z,63.30
2018-11-03T20:49:57.383Z,64.40
2018-11-03T20:52:37.019Z,64.43
2018-11-03T20:55:21.561Z,60.50
2018-11-03T20:58:01.288Z,67.23
2018-11-03T21:00:41.717Z,66.17
2018-11-03T21:03:26.760Z,63.97
2018-11-03T21:06:06.423Z,63.27
2018-11-03T21:08:51.282Z,66.23
2018-11-03T21:11:31.161Z,65.40
2018-11-03T21:14:10.212Z,64.23
2018-11-03T21:16:49.458Z,64.10
2018-11-03T21:19:28.817Z,63.47
2018-11-03T21:22:11.264Z,62.97
2018-11-03T21:24:51.278Z,63.37
2018-11-03T21:27:31.144Z,66.17
2018-11-03T21:30:09.581Z,63.23
2018-11-03T21:32:53.296Z,61.53
2018-11-03T21:35:30.646Z,63.90
2018-11-03T21:38:12.141Z,64.00
2018-11-03T21:40:54.783Z,64.03
2018-11-03T21:43:34.182Z,64.23
2018-11-03T21:46:15.333Z,63.27
2018-11-03T21:48:57.743Z,64.70
2018-11-03T21:51:40.847Z,63.10
2018-11-03T21:54:22.246Z,61.83
2018-11-03T21:57:06.281Z,61.63
2018-11-03T21:59:50.177Z,62.50
2018-11-03T22:02:30.300Z,65.80
2018-11-03T22:05:15.501Z,63.93
2018-11-03T22:07:56.482Z,64.77
2018-11-03T22:10:34.578Z,63.40
2018-11-03T22:13:13.938Z,67.60
2018-11-03T22:15:58.189Z,65.00
2018-11-03T22:18:37.042Z,65.00
2018-11-03T22:21:15.344Z,66.93
2018-11-03T22:23:55.499Z,66.43
2018-11-03T22:26:34.904Z,68.43
2018-11-03T22:29:15.134Z,68.87
2018-11-03T22:31:56.079Z,75.50
2018-11-03T22:34:35.363Z,74.90
2018-11-03T22:37:18.136Z,75.97
2018-11-03T22:39:58.940Z,79.40
2018-11-03T22:42:39.682Z,93.03
2018-11-03T22:45:17.681Z,114.40
2018-11-03T22:47:58.179Z,140.10
2018-11-03T22:50:38.777Z,143.30
2018-11-03T22:53:20.339Z,141.53
2018-11-03T22:56:00.735Z,155.03
2018-11-03T22:58:37.725Z,160.90
2018-11-03T23:01:18.159Z,146.77
2018-11-03T23:04:03.042Z,136.80
2018-11-03T23:06:46.442Z,127.00
2018-11-03T23:09:22.858Z,84.80
2018-11-03T23:12:01.800Z,66.77
2018-11-03T23:14:39.541Z,58.13
2018-11-03T23:17:24.103Z,60.73
2018-11-03T23:20:01.646Z,81.40
2018-11-03T23:22:39.138Z,108.77
2018-11-03T23:25:18.301Z,119.83
2018-11-03T23:28:00.979Z,128.37
2018-11-03T23:30:40.242Z,145.97
2018-11-03T23:33:19.419Z,135.37
2018-11-03T23:35:59.620Z,153.80
2018-11-03T23:38:45.278Z,156.47
2018-11-03T23:41:22.839Z,161.77
2018-11-03T23:44:01.934Z,170.83
2018-11-03T23:46:46.395Z,188.10
2018-11-03T23:49:26.461Z,169.87
2018-11-03T23:52:03.582Z,172.43
2018-11-03T23:54:42.360Z,170.13
2018-11-03T23:57:23.414Z,186.80
